sensor_id;sensor_type;location;lat;lon;timestamp;pressure;altitude;pressure_sealevel;temperature;humidity
57192;BME280;43052;52.588;13.396;2022-12-20T00:01:40;101417.16;;;4.63;75.87
57192;BME280;43052;52.588;13.396;2022-12-20T00:04:05;101418.81;;;4.61;75.87
57192;BME280;43052;52.588;13.396;2022-12-20T00:06:33;101409.34;;;4.61;76.05
57192;BME280;43052;52.588;13.396;2022-12-20T00:09:00;101416.31;;;4.62;75.85
57192;BME280;43052;52.588;13.396;2022-12-20T00:11:26;101424.91;;;4.61;75.83
57192;BME280;43052;52.588;13.396;2022-12-20T00:13:52;101423.06;;;4.59;75.96
57192;BME280;43052;52.588;13.396;2022-12-20T00:16:19;101424.84;;;4.60;75.86
57192;BME280;43052;52.588;13.396;2022-12-20T00:18:46;101404.91;;;4.57;75.75
57192;BME280;43052;52.588;13.396;2022-12-20T00:21:13;101407.66;;;4.63;75.76
57192;BME280;43052;52.588;13.396;2022-12-20T00:23:39;101403.38;;;4.64;75.58
57192;BME280;43052;52.588;13.396;2022-12-20T00:26:10;101412.13;;;4.67;75.42
57192;BME280;43052;52.588;13.396;2022-12-20T00:28:37;101404.38;;;4.69;75.59
57192;BME280;43052;52.588;13.396;2022-12-20T00:31:04;101401.84;;;4.70;75.32
57192;BME280;43052;52.588;13.396;2022-12-20T00:33:32;101399.25;;;4.70;75.20
57192;BME280;43052;52.588;13.396;2022-12-20T00:35:57;101385.47;;;4.72;75.20
57192;BME280;43052;52.588;13.396;2022-12-20T00:38:23;101375.88;;;4.69;75.19
57192;BME280;43052;52.588;13.396;2022-12-20T00:41:09;101393.97;;;4.67;75.23
57192;BME280;43052;52.588;13.396;2022-12-20T00:43:35;101382.66;;;4.64;75.18
57192;BME280;43052;52.588;13.396;2022-12-20T00:46:01;101386.88;;;4.60;75.05
57192;BME280;43052;52.588;13.396;2022-12-20T00:48:27;101388.69;;;4.64;74.83
57192;BME280;43052;52.588;13.396;2022-12-20T00:51:00;101390.44;;;4.64;74.93
57192;BME280;43052;52.588;13.396;2022-12-20T00:53:26;101399.03;;;4.63;75.08
57192;BME280;43052;52.588;13.396;2022-12-20T00:55:52;101393.97;;;4.67;74.86
57192;BME280;43052;52.588;13.396;2022-12-20T00:58:17;101384.47;;;4.68;74.84
57192;BME280;43052;52.588;13.396;2022-12-20T01:00:42;101388.81;;;4.67;74.74
57192;BME280;43052;52.588;13.396;2022-12-20T01:03:08;101399.25;;;4.70;74.85
57192;BME280;43052;52.588;13.396;2022-12-20T01:05:33;101385.47;;;4.72;74.73
57192;BME280;43052;52.588;13.396;2022-12-20T01:07:58;101393.31;;;4.75;74.23
57192;BME280;43052;52.588;13.396;2022-12-20T01:10:24;101390.75;;;4.76;74.42
57192;BME280;43052;52.588;13.396;2022-12-20T01:12:49;101392.53;;;4.77;74.20
57192;BME280;43052;52.588;13.396;2022-12-20T01:15:14;101397.00;;;4.83;74.22
57192;BME280;43052;52.588;13.396;2022-12-20T01:17:40;101376.25;;;4.81;74.29
57192;BME280;43052;52.588;13.396;2022-12-20T01:20:05;101372.63;;;4.76;74.33
57192;BME280;43052;52.588;13.396;2022-12-20T01:22:31;101385.81;;;4.84;74.03
57192;BME280;43052;52.588;13.396;2022-12-20T01:24:56;101379.75;;;4.83;73.96
57192;BME280;43052;52.588;13.396;2022-12-20T01:27:22;101377.22;;;4.86;74.26
57192;BME280;43052;52.588;13.396;2022-12-20T01:29:47;101387.66;;;4.88;74.13
57192;BME280;43052;52.588;13.396;2022-12-20T01:32:12;101380.78;;;4.90;74.08
57192;BME280;43052;52.588;13.396;2022-12-20T01:34:38;101381.75;;;4.94;73.88
57192;BME280;43052;52.588;13.396;2022-12-20T01:37:03;101384.44;;;4.97;73.74
57192;BME280;43052;52.588;13.396;2022-12-20T01:39:28;101371.56;;;5.00;73.72
57192;BME280;43052;52.588;13.396;2022-12-20T01:41:53;101364.72;;;5.02;73.67
57192;BME280;43052;52.588;13.396;2022-12-20T01:46:46;101366.41;;;5.01;73.47
57192;BME280;43052;52.588;13.396;2022-12-20T01:49:19;101359.34;;;4.96;73.56
57192;BME280;43052;52.588;13.396;2022-12-20T01:51:48;101364.53;;;4.96;73.55
57192;BME280;43052;52.588;13.396;2022-12-20T01:54:18;101364.50;;;4.94;73.61
57192;BME280;43052;52.588;13.396;2022-12-20T01:56:49;101354.81;;;4.87;73.46
57192;BME280;43052;52.588;13.396;2022-12-20T01:59:15;101362.56;;;4.87;73.58
57192;BME280;43052;52.588;13.396;2022-12-20T02:01:41;101358.13;;;4.83;73.73
57192;BME280;43052;52.588;13.396;2022-12-20T02:04:08;101355.38;;;4.77;73.63
57192;BME280;43052;52.588;13.396;2022-12-20T02:06:34;101359.59;;;4.73;73.66
57192;BME280;43052;52.588;13.396;2022-12-20T02:09:01;101358.69;;;4.73;73.57
57192;BME280;43052;52.588;13.396;2022-12-20T02:14:20;101363.94;;;4.74;73.41
57192;BME280;43052;52.588;13.396;2022-12-20T02:17:11;101363.25;;;4.80;73.30
57192;BME280;43052;52.588;13.396;2022-12-20T02:20:03;101363.28;;;4.81;73.36
57192;BME280;43052;52.588;13.396;2022-12-20T02:25:50;101348.41;;;4.74;73.21
57192;BME280;43052;52.588;13.396;2022-12-20T02:30:56;101367.81;;;4.90;73.17
57192;BME280;43052;52.588;13.396;2022-12-20T02:33:25;101355.81;;;4.94;72.99
57192;BME280;43052;52.588;13.396;2022-12-20T02:35:52;101364.66;;;5.00;73.16
57192;BME280;43052;52.588;13.396;2022-12-20T02:38:35;101350.81;;;5.00;72.96
57192;BME280;43052;52.588;13.396;2022-12-20T02:41:05;101352.59;;;5.01;72.89
57192;BME280;43052;52.588;13.396;2022-12-20T02:43:33;101357.72;;;4.99;72.82
57192;BME280;43052;52.588;13.396;2022-12-20T02:46:19;101346.47;;;4.99;73.15
57192;BME280;43052;52.588;13.396;2022-12-20T02:48:46;101346.44;;;4.97;72.96
57192;BME280;43052;52.588;13.396;2022-12-20T02:51:13;101324.78;;;4.95;72.96
57192;BME280;43052;52.588;13.396;2022-12-20T02:53:39;101312.63;;;4.93;73.08
57192;BME280;43052;52.588;13.396;2022-12-20T02:56:12;101308.50;;;5.01;72.98
57192;BME280;43052;52.588;13.396;2022-12-20T02:58:54;101316.44;;;5.07;72.83
57192;BME280;43052;52.588;13.396;2022-12-20T03:01:27;101310.56;;;5.14;72.56
57192;BME280;43052;52.588;13.396;2022-12-20T03:03:54;101312.44;;;5.20;72.63
57192;BME280;43052;52.588;13.396;2022-12-20T03:06:20;101300.41;;;5.22;72.83
57192;BME280;43052;52.588;13.396;2022-12-20T03:08:46;101304.78;;;5.25;72.50
57192;BME280;43052;52.588;13.396;2022-12-20T03:11:11;101303.03;;;5.24;72.39
57192;BME280;43052;52.588;13.396;2022-12-20T03:13:37;101299.75;;;5.31;72.34
57192;BME280;43052;52.588;13.396;2022-12-20T03:16:02;101297.97;;;5.30;72.32
57192;BME280;43052;52.588;13.396;2022-12-20T03:18:28;101298.88;;;5.30;72.38
57192;BME280;43052;52.588;13.396;2022-12-20T03:20:53;101295.44;;;5.31;72.13
57192;BME280;43052;52.588;13.396;2022-12-20T03:23:18;101295.44;;;5.31;72.32
57192;BME280;43052;52.588;13.396;2022-12-20T03:25:43;101302.41;;;5.32;71.99
57192;BME280;43052;52.588;13.396;2022-12-20T03:28:09;101307.69;;;5.37;72.14
57192;BME280;43052;52.588;13.396;2022-12-20T03:30:34;101316.44;;;5.41;71.92
57192;BME280;43052;52.588;13.396;2022-12-20T03:32:59;101317.41;;;5.46;71.89
57192;BME280;43052;52.588;13.396;2022-12-20T03:35:25;101322.69;;;5.51;71.90
57192;BME280;43052;52.588;13.396;2022-12-20T03:37:50;101322.78;;;5.54;71.72
57192;BME280;43052;52.588;13.396;2022-12-20T03:40:15;101314.28;;;5.59;71.49
57192;BME280;43052;52.588;13.396;2022-12-20T03:42:40;101308.31;;;5.63;71.76
57192;BME280;43052;52.588;13.396;2022-12-20T03:45:06;101309.19;;;5.64;71.50
57192;BME280;43052;52.588;13.396;2022-12-20T03:47:31;101309.13;;;5.61;71.42
57192;BME280;43052;52.588;13.396;2022-12-20T03:49:57;101304.63;;;5.54;71.37
57192;BME280;43052;52.588;13.396;2022-12-20T03:52:22;101315.97;;;5.57;71.35
57192;BME280;43052;52.588;13.396;2022-12-20T03:54:47;101303.72;;;5.53;71.47
57192;BME280;43052;52.588;13.396;2022-12-20T03:57:12;101302.75;;;5.48;71.63
57192;BME280;43052;52.588;13.396;2022-12-20T03:59:37;101299.13;;;5.41;71.44
57192;BME280;43052;52.588;13.396;2022-12-20T04:02:03;101298.88;;;5.30;71.91
57192;BME280;43052;52.588;13.396;2022-12-20T04:04:28;101303.81;;;5.20;71.86
57192;BME280;43052;52.588;13.396;2022-12-20T04:06:54;101309.66;;;5.12;71.70
57192;BME280;43052;52.588;13.396;2022-12-20T04:09:19;101315.50;;;5.04;71.80
57192;BME280;43052;52.588;13.396;2022-12-20T04:11:44;101318.78;;;4.98;71.97
57192;BME280;43052;52.588;13.396;2022-12-20T04:14:09;101319.59;;;4.95;71.82
57192;BME280;43052;52.588;13.396;2022-12-20T04:16:34;101317.88;;;4.96;72.06
57192;BME280;43052;52.588;13.396;2022-12-20T04:19:00;101320.31;;;4.90;72.11
57192;BME280;43052;52.588;13.396;2022-12-20T04:21:30;101320.19;;;4.85;72.15
57192;BME280;43052;52.588;13.396;2022-12-20T04:23:57;101307.19;;;4.83;72.29
57192;BME280;43052;52.588;13.396;2022-12-20T04:26:23;101312.25;;;4.79;72.00
57192;BME280;43052;52.588;13.396;2022-12-20T04:28:48;101305.19;;;4.73;72.17
57192;BME280;43052;52.588;13.396;2022-12-20T04:31:13;101299.97;;;4.72;72.50
57192;BME280;43052;52.588;13.396;2022-12-20T04:33:39;101296.47;;;4.71;72.24
57192;BME280;43052;52.588;13.396;2022-12-20T04:36:04;101305.91;;;4.69;72.49
57192;BME280;43052;52.588;13.396;2022-12-20T04:38:30;101305.84;;;4.66;72.43
57192;BME280;43052;52.588;13.396;2022-12-20T04:40:55;101306.56;;;4.60;72.72
57192;BME280;43052;52.588;13.396;2022-12-20T04:43:22;101301.38;;;4.60;72.84
57192;BME280;43052;52.588;13.396;2022-12-20T04:45:49;101296.91;;;4.54;72.36
57192;BME280;43052;52.588;13.396;2022-12-20T04:48:16;101298.69;;;4.57;72.69
57192;BME280;43052;52.588;13.396;2022-12-20T04:50:41;101300.44;;;4.58;72.71
57192;BME280;43052;52.588;13.396;2022-12-20T04:53:10;101283.94;;;4.54;72.59
57192;BME280;43052;52.588;13.396;2022-12-20T04:55:53;101289.16;;;4.56;72.70
57192;BME280;43052;52.588;13.396;2022-12-20T04:58:19;101292.53;;;4.52;72.50
57192;BME280;43052;52.588;13.396;2022-12-20T05:00:44;101296.66;;;4.45;72.74
57192;BME280;43052;52.588;13.396;2022-12-20T05:03:09;101293.09;;;4.42;72.83
57192;BME280;43052;52.588;13.396;2022-12-20T05:05:34;101292.97;;;4.37;72.98
57192;BME280;43052;52.588;13.396;2022-12-20T05:08:00;101286.84;;;4.35;73.01
57192;BME280;43052;52.588;13.396;2022-12-20T05:10:26;101269.34;;;4.26;73.01
57192;BME280;43052;52.588;13.396;2022-12-20T05:12:51;101285.78;;;4.28;73.48
57192;BME280;43052;52.588;13.396;2022-12-20T05:15:16;101279.78;;;4.29;73.41
57192;BME280;43052;52.588;13.396;2022-12-20T05:17:42;101296.50;;;4.41;73.38
57192;BME280;43052;52.588;13.396;2022-12-20T05:20:07;101299.34;;;4.48;73.39
57192;BME280;43052;52.588;13.396;2022-12-20T05:22:33;101294.34;;;4.56;73.47
57192;BME280;43052;52.588;13.396;2022-12-20T05:25:16;101289.25;;;4.59;73.31
57192;BME280;43052;52.588;13.396;2022-12-20T05:28:00;101274.78;;;4.67;73.28
57192;BME280;43052;52.588;13.396;2022-12-20T05:30:26;101264.56;;;4.72;73.19
57192;BME280;43052;52.588;13.396;2022-12-20T05:32:51;101262.91;;;4.74;73.19
57192;BME280;43052;52.588;13.396;2022-12-20T05:35:17;101265.53;;;4.77;73.35
57192;BME280;43052;52.588;13.396;2022-12-20T05:37:42;101274.38;;;4.84;73.31
57192;BME280;43052;52.588;13.396;2022-12-20T05:40:08;101275.28;;;4.86;73.11
57192;BME280;43052;52.588;13.396;2022-12-20T05:42:33;101265.91;;;4.91;73.25
57192;BME280;43052;52.588;13.396;2022-12-20T05:44:59;101257.28;;;4.92;73.33
57192;BME280;43052;52.588;13.396;2022-12-20T05:47:25;101253.19;;;5.00;72.99
57192;BME280;43052;52.588;13.396;2022-12-20T05:49:51;101254.19;;;5.06;73.18
57192;BME280;43052;52.588;13.396;2022-12-20T05:52:16;101255.09;;;5.08;72.86
57192;BME280;43052;52.588;13.396;2022-12-20T05:54:41;101267.22;;;5.09;72.76
57192;BME280;43052;52.588;13.396;2022-12-20T05:57:06;101278.63;;;5.15;72.97
57192;BME280;43052;52.588;13.396;2022-12-20T05:59:31;101278.72;;;5.18;72.75
57192;BME280;43052;52.588;13.396;2022-12-20T06:01:57;101267.53;;;5.21;72.80
57192;BME280;43052;52.588;13.396;2022-12-20T06:04:22;101246.81;;;5.23;72.65
57192;BME280;43052;52.588;13.396;2022-12-20T06:06:47;101252.22;;;5.32;72.83
57192;BME280;43052;52.588;13.396;2022-12-20T06:09:12;101253.16;;;5.36;72.57
57192;BME280;43052;52.588;13.396;2022-12-20T06:11:38;101263.63;;;5.39;72.63
57192;BME280;43052;52.588;13.396;2022-12-20T06:14:03;101260.19;;;5.40;72.53
57192;BME280;43052;52.588;13.396;2022-12-20T06:16:29;101268.81;;;5.39;72.61
57192;BME280;43052;52.588;13.396;2022-12-20T06:18:54;101277.53;;;5.41;72.52
57192;BME280;43052;52.588;13.396;2022-12-20T06:21:19;101284.56;;;5.46;72.43
57192;BME280;43052;52.588;13.396;2022-12-20T06:23:44;101289.81;;;5.49;72.50
57192;BME280;43052;52.588;13.396;2022-12-20T06:26:10;101281.19;;;5.51;72.62
57192;BME280;43052;52.588;13.396;2022-12-20T06:28:35;101282.94;;;5.52;72.51
57192;BME280;43052;52.588;13.396;2022-12-20T06:31:07;101280.44;;;5.55;72.22
57192;BME280;43052;52.588;13.396;2022-12-20T06:33:33;101286.41;;;5.52;72.60
57192;BME280;43052;52.588;13.396;2022-12-20T06:35:58;101299.56;;;5.58;72.48
57192;BME280;43052;52.588;13.396;2022-12-20T06:38:23;101280.47;;;5.56;72.34
57192;BME280;43052;52.588;13.396;2022-12-20T06:40:49;101280.69;;;5.65;72.55
57192;BME280;43052;52.588;13.396;2022-12-20T06:43:15;101284.22;;;5.69;72.52
57192;BME280;43052;52.588;13.396;2022-12-20T06:45:40;101286.00;;;5.72;72.42
57192;BME280;43052;52.588;13.396;2022-12-20T06:48:05;101286.00;;;5.72;72.52
57192;BME280;43052;52.588;13.396;2022-12-20T06:50:30;101289.41;;;5.69;72.60
57192;BME280;43052;52.588;13.396;2022-12-20T06:52:56;101285.97;;;5.70;72.63
57192;BME280;43052;52.588;13.396;2022-12-20T06:55:21;101289.50;;;5.72;72.63
57192;BME280;43052;52.588;13.396;2022-12-20T06:57:46;101285.97;;;5.70;72.69
57192;BME280;43052;52.588;13.396;2022-12-20T07:00:12;101297.34;;;5.75;72.96
57192;BME280;43052;52.588;13.396;2022-12-20T07:02:37;101293.09;;;5.79;72.65
57192;BME280;43052;52.588;13.396;2022-12-20T07:05:03;101298.28;;;5.79;72.82
57192;BME280;43052;52.588;13.396;2022-12-20T07:07:28;101293.06;;;5.77;72.90
57192;BME280;43052;52.588;13.396;2022-12-20T07:09:54;101294.00;;;5.81;73.09
57192;BME280;43052;52.588;13.396;2022-12-20T07:12:19;101290.47;;;5.79;73.10
57192;BME280;43052;52.588;13.396;2022-12-20T07:14:44;101301.91;;;5.86;73.22
57192;BME280;43052;52.588;13.396;2022-12-20T07:17:10;101300.31;;;5.92;72.97
57192;BME280;43052;52.588;13.396;2022-12-20T07:19:35;101298.47;;;5.88;73.36
57192;BME280;43052;52.588;13.396;2022-12-20T07:22:01;101313.25;;;5.91;73.38
57192;BME280;43052;52.588;13.396;2022-12-20T07:24:26;101310.69;;;5.92;73.29
57192;BME280;43052;52.588;13.396;2022-12-20T07:26:52;101313.31;;;5.94;73.50
57192;BME280;43052;52.588;13.396;2022-12-20T07:29:18;101325.50;;;5.96;73.36
57192;BME280;43052;52.588;13.396;2022-12-20T07:31:43;101325.59;;;6.00;73.50
57192;BME280;43052;52.588;13.396;2022-12-20T07:34:09;101331.66;;;6.00;73.56
57192;BME280;43052;52.588;13.396;2022-12-20T07:36:34;101331.66;;;6.00;73.61
57192;BME280;43052;52.588;13.396;2022-12-20T07:39:00;101332.66;;;6.05;73.85
57192;BME280;43052;52.588;13.396;2022-12-20T07:41:25;101329.25;;;6.08;73.72
57192;BME280;43052;52.588;13.396;2022-12-20T07:43:50;101336.16;;;6.07;73.91
57192;BME280;43052;52.588;13.396;2022-12-20T07:46:16;101330.03;;;6.04;73.88
57192;BME280;43052;52.588;13.396;2022-12-20T07:48:41;101330.81;;;6.01;74.00
57192;BME280;43052;52.588;13.396;2022-12-20T07:51:28;101332.69;;;6.07;74.08
57192;BME280;43052;52.588;13.396;2022-12-20T07:54:01;101324.88;;;6.05;74.21
57192;BME280;43052;52.588;13.396;2022-12-20T07:56:31;101327.56;;;6.10;73.99
57192;BME280;43052;52.588;13.396;2022-12-20T07:58:59;101332.03;;;6.16;74.18
57192;BME280;43052;52.588;13.396;2022-12-20T08:01:26;101331.19;;;6.17;74.24
57192;BME280;43052;52.588;13.396;2022-12-20T08:03:59;101329.38;;;6.14;74.37
57192;BME280;43052;52.588;13.396;2022-12-20T08:06:26;101324.19;;;6.14;74.26
57192;BME280;43052;52.588;13.396;2022-12-20T08:08:53;101327.69;;;6.16;74.35
57192;BME280;43052;52.588;13.396;2022-12-20T08:11:22;101322.53;;;6.18;74.52
57192;BME280;43052;52.588;13.396;2022-12-20T08:13:49;101319.97;;;6.19;74.54
57192;BME280;43052;52.588;13.396;2022-12-20T08:16:15;101320.81;;;6.18;74.76
57192;BME280;43052;52.588;13.396;2022-12-20T08:18:41;101308.56;;;6.13;74.73
57192;BME280;43052;52.588;13.396;2022-12-20T08:21:06;101328.69;;;6.21;74.57
57192;BME280;43052;52.588;13.396;2022-12-20T08:23:32;101323.44;;;6.20;74.44
57192;BME280;43052;52.588;13.396;2022-12-20T08:26:00;101319.09;;;6.19;74.90
57192;BME280;43052;52.588;13.396;2022-12-20T08:28:25;101322.50;;;6.16;75.36
57192;BME280;43052;52.588;13.396;2022-12-20T08:30:50;101319.97;;;6.19;75.20
57192;BME280;43052;52.588;13.396;2022-12-20T08:33:15;101317.50;;;6.25;75.31
57192;BME280;43052;52.588;13.396;2022-12-20T08:35:40;101310.53;;;6.23;75.26
57192;BME280;43052;52.588;13.396;2022-12-20T08:38:06;101309.81;;;6.32;75.26
57192;BME280;43052;52.588;13.396;2022-12-20T08:40:31;101303.84;;;6.34;75.38
57192;BME280;43052;52.588;13.396;2022-12-20T08:42:57;101297.78;;;6.35;75.24
57192;BME280;43052;52.588;13.396;2022-12-20T08:45:22;101296.91;;;6.35;75.27
57192;BME280;43052;52.588;13.396;2022-12-20T08:47:48;101305.66;;;6.40;75.67
57192;BME280;43052;52.588;13.396;2022-12-20T08:50:13;101314.38;;;6.43;75.61
57192;BME280;43052;52.588;13.396;2022-12-20T08:52:38;101303.22;;;6.46;75.67
57192;BME280;43052;52.588;13.396;2022-12-20T08:55:04;101305.91;;;6.52;75.90
57192;BME280;43052;52.588;13.396;2022-12-20T08:57:29;101292.00;;;6.50;75.79
57192;BME280;43052;52.588;13.396;2022-12-20T08:59:55;101286.81;;;6.49;75.68
57192;BME280;43052;52.588;13.396;2022-12-20T09:02:20;101295.63;;;6.57;75.77
57192;BME280;43052;52.588;13.396;2022-12-20T09:04:45;101303.50;;;6.60;75.79
57192;BME280;43052;52.588;13.396;2022-12-20T09:07:11;101306.94;;;6.61;75.88
57192;BME280;43052;52.588;13.396;2022-12-20T09:09:36;101296.56;;;6.62;76.06
57192;BME280;43052;52.588;13.396;2022-12-20T09:12:02;101298.41;;;6.68;75.92
57192;BME280;43052;52.588;13.396;2022-12-20T09:14:27;101295.97;;;6.76;76.11
57192;BME280;43052;52.588;13.396;2022-12-20T09:16:52;101300.38;;;6.80;76.07
57192;BME280;43052;52.588;13.396;2022-12-20T09:19:18;101297.00;;;6.85;75.72
57192;BME280;43052;52.588;13.396;2022-12-20T09:21:43;101292.25;;;7.10;75.75
57192;BME280;43052;52.588;13.396;2022-12-20T09:24:08;101290.22;;;7.44;75.35
57192;BME280;43052;52.588;13.396;2022-12-20T09:26:34;101280.03;;;7.60;74.86
57192;BME280;43052;52.588;13.396;2022-12-20T09:29:00;101271.47;;;7.67;74.82
57192;BME280;43052;52.588;13.396;2022-12-20T09:31:26;101268.88;;;7.68;74.65
57192;BME280;43052;52.588;13.396;2022-12-20T09:33:52;101283.69;;;7.71;74.89
57192;BME280;43052;52.588;13.396;2022-12-20T09:36:19;101285.47;;;7.77;74.91
57192;BME280;43052;52.588;13.396;2022-12-20T09:38:46;101280.41;;;7.86;74.82
57192;BME280;43052;52.588;13.396;2022-12-20T09:41:32;101282.34;;;8.03;74.63
57192;BME280;43052;52.588;13.396;2022-12-20T09:43:59;101270.53;;;8.29;74.37
57192;BME280;43052;52.588;13.396;2022-12-20T09:46:28;101275.34;;;8.68;74.16
57192;BME280;43052;52.588;13.396;2022-12-20T09:48:53;101273.03;;;8.97;73.47
57192;BME280;43052;52.588;13.396;2022-12-20T09:54:27;101273.34;;;9.33;72.51
57192;BME280;43052;52.588;13.396;2022-12-20T09:57:28;101269.03;;;9.38;72.03
57192;BME280;43052;52.588;13.396;2022-12-20T09:59:57;101277.78;;;9.48;71.96
57192;BME280;43052;52.588;13.396;2022-12-20T10:02:24;101276.03;;;9.44;71.53
57192;BME280;43052;52.588;13.396;2022-12-20T10:04:50;101270.66;;;9.27;71.65
57192;BME280;43052;52.588;13.396;2022-12-20T10:07:37;101271.41;;;9.07;71.75
57192;BME280;43052;52.588;13.396;2022-12-20T10:13:05;101257.09;;;8.69;72.16
57192;BME280;43052;52.588;13.396;2022-12-20T10:16:39;101263.25;;;8.74;72.16
57192;BME280;43052;52.588;13.396;2022-12-20T10:19:09;101268.56;;;8.84;72.13
57192;BME280;43052;52.588;13.396;2022-12-20T10:21:48;101266.09;;;8.99;71.42
57192;BME280;43052;52.588;13.396;2022-12-20T10:24:24;101260.97;;;9.10;71.19
57192;BME280;43052;52.588;13.396;2022-12-20T10:26:51;101258.47;;;9.24;71.35
57192;BME280;43052;52.588;13.396;2022-12-20T10:29:18;101244.59;;;9.28;70.98
57192;BME280;43052;52.588;13.396;2022-12-20T10:31:43;101246.34;;;9.29;71.24
57192;BME280;43052;52.588;13.396;2022-12-20T10:34:08;101242.00;;;9.30;71.06
57192;BME280;43052;52.588;13.396;2022-12-20T10:36:35;101224.63;;;9.32;71.11
57192;BME280;43052;52.588;13.396;2022-12-20T10:39:10;101222.88;;;9.31;70.90
57192;BME280;43052;52.588;13.396;2022-12-20T10:46:41;101202.78;;;9.20;70.76
57192;BME280;43052;52.588;13.396;2022-12-20T10:51:57;101203.66;;;9.24;70.64
57192;BME280;43052;52.588;13.396;2022-12-20T10:54:28;101195.03;;;9.34;70.26
57192;BME280;43052;52.588;13.396;2022-12-20T10:56:58;101192.56;;;9.57;70.29
57192;BME280;43052;52.588;13.396;2022-12-20T10:59:35;101190.00;;;9.64;69.99
57192;BME280;43052;52.588;13.396;2022-12-20T11:02:07;101187.41;;;9.70;69.90
57192;BME280;43052;52.588;13.396;2022-12-20T11:04:59;101185.72;;;9.87;69.55
57192;BME280;43052;52.588;13.396;2022-12-20T11:07:28;101167.47;;;9.97;69.17
57192;BME280;43052;52.588;13.396;2022-12-20T11:09:57;101150.94;;;9.93;67.98
57192;BME280;43052;52.588;13.396;2022-12-20T11:12:22;101156.06;;;9.75;67.62
57192;BME280;43052;52.588;13.396;2022-12-20T11:14:48;101149.94;;;9.59;68.45
57192;BME280;43052;52.588;13.396;2022-12-20T11:17:25;101159.44;;;9.49;69.01
57192;BME280;43052;52.588;13.396;2022-12-20T11:20:03;101151.59;;;9.41;69.19
57192;BME280;43052;52.588;13.396;2022-12-20T11:22:44;101141.97;;;9.37;68.93
57192;BME280;43052;52.588;13.396;2022-12-20T11:27:45;101142.88;;;9.40;68.95
57192;BME280;43052;52.588;13.396;2022-12-20T11:30:24;101128.97;;;9.40;69.20
57192;BME280;43052;52.588;13.396;2022-12-20T11:38:42;101132.41;;;9.33;69.24
57192;BME280;43052;52.588;13.396;2022-12-20T11:41:49;101140.22;;;9.36;69.09
57192;BME280;43052;52.588;13.396;2022-12-20T11:44:44;101136.78;;;9.41;68.79
57192;BME280;43052;52.588;13.396;2022-12-20T11:47:33;101128.16;;;9.55;68.64
57192;BME280;43052;52.588;13.396;2022-12-20T11:52:57;101120.41;;;9.77;68.28
57192;BME280;43052;52.588;13.396;2022-12-20T11:55:32;101111.69;;;9.71;68.03
57192;BME280;43052;52.588;13.396;2022-12-20T11:58:15;101106.44;;;9.64;68.21
57192;BME280;43052;52.588;13.396;2022-12-20T12:00:49;101119.44;;;9.54;68.33
57192;BME280;43052;52.588;13.396;2022-12-20T12:03:33;101112.44;;;9.44;68.41
57192;BME280;43052;52.588;13.396;2022-12-20T12:06:03;101108.03;;;9.37;68.15
57192;BME280;43052;52.588;13.396;2022-12-20T12:08:42;101109.78;;;9.32;68.05
57192;BME280;43052;52.588;13.396;2022-12-20T12:11:33;101128.03;;;9.33;68.50
57192;BME280;43052;52.588;13.396;2022-12-20T12:14:00;101120.25;;;9.38;68.37
57192;BME280;43052;52.588;13.396;2022-12-20T12:16:36;101112.38;;;9.32;68.22
57192;BME280;43052;52.588;13.396;2022-12-20T12:19:08;101113.22;;;9.28;68.04
57192;BME280;43052;52.588;13.396;2022-12-20T12:21:43;101108.03;;;9.29;68.36
57192;BME280;43052;52.588;13.396;2022-12-20T12:24:18;101109.75;;;9.30;68.14
57192;BME280;43052;52.588;13.396;2022-12-20T12:26:45;101093.25;;;9.33;68.13
57192;BME280;43052;52.588;13.396;2022-12-20T12:29:12;101092.41;;;9.38;68.08
57192;BME280;43052;52.588;13.396;2022-12-20T12:31:55;101083.72;;;9.49;68.12
57192;BME280;43052;52.588;13.396;2022-12-20T12:40:33;101071.53;;;9.46;67.88
57192;BME280;43052;52.588;13.396;2022-12-20T12:43:22;101070.63;;;9.35;67.86
57192;BME280;43052;52.588;13.396;2022-12-20T12:45:56;101068.03;;;9.32;68.19
57192;BME280;43052;52.588;13.396;2022-12-20T12:48:45;101061.06;;;9.29;68.40
57192;BME280;43052;52.588;13.396;2022-12-20T12:51:14;101059.31;;;9.30;68.27
57192;BME280;43052;52.588;13.396;2022-12-20T12:53:47;101055.81;;;9.24;68.21
57192;BME280;43052;52.588;13.396;2022-12-20T12:59:12;101057.50;;;9.19;68.40
57192;BME280;43052;52.588;13.396;2022-12-20T13:01:54;101047.06;;;9.13;68.61
57192;BME280;43052;52.588;13.396;2022-12-20T13:04:56;101053.97;;;9.05;68.59
57192;BME280;43052;52.588;13.396;2022-12-20T13:12:54;101042.59;;;8.92;68.91
57192;BME280;43052;52.588;13.396;2022-12-20T13:17:56;101031.22;;;8.81;69.06
57192;BME280;43052;52.588;13.396;2022-12-20T13:20:24;101047.75;;;8.81;69.10
57192;BME280;43052;52.588;13.396;2022-12-20T13:25:41;101048.53;;;8.71;69.37
57192;BME280;43052;52.588;13.396;2022-12-20T13:41:27;101043.97;;;8.45;69.39
57192;BME280;43052;52.588;13.396;2022-12-20T13:43:55;101041.31;;;8.37;69.31
57192;BME280;43052;52.588;13.396;2022-12-20T13:46:26;101038.66;;;8.31;69.25
57192;BME280;43052;52.588;13.396;2022-12-20T13:48:58;101031.66;;;8.27;69.33
57192;BME280;43052;52.588;13.396;2022-12-20T13:51:27;101028.13;;;8.20;69.47
57192;BME280;43052;52.588;13.396;2022-12-20T13:53:54;101028.13;;;8.19;69.23
57192;BME280;43052;52.588;13.396;2022-12-20T13:58:53;101035.09;;;8.21;69.31
57192;BME280;43052;52.588;13.396;2022-12-20T14:01:21;101043.78;;;8.22;69.08
57192;BME280;43052;52.588;13.396;2022-12-20T14:03:48;101036.78;;;8.14;69.17
57192;BME280;43052;52.588;13.396;2022-12-20T14:06:15;101029.75;;;8.04;68.88
57192;BME280;43052;52.588;13.396;2022-12-20T14:08:47;101045.38;;;8.07;69.07
57192;BME280;43052;52.588;13.396;2022-12-20T14:11:15;101042.78;;;8.04;68.92